Time,TemperatureF,DewpointF,PressureIn,WindDirection,WindDirectionDegrees,WindSpeedMPH,WindSpeedGustMPH,Humidity,HourlyPrecipIn,Conditions,Clouds,dailyrainin,SoftwareType,DateUTC
2013-03-17 00:00:00,37.6,32.3,29.88,NE,42,0.0,7.0,81,0.00,,,0.00,Wunderground v.1.12,2013-03-17 04:00:00,
2013-03-17 00:10:00,37.5,32.5,29.88,NE,42,0.0,7.0,82,0.00,,,0.00,Wunderground v.1.12,2013-03-17 04:10:00,
2013-03-17 00:20:00,37.2,32.2,29.88,NE,42,0.0,7.0,82,0.00,,,0.00,Wunderground v.1.12,2013-03-17 04:20:00,
2013-03-17 00:30:00,37.0,32.0,29.88,NE,42,0.0,7.0,82,0.00,,,0.00,Wunderground v.1.12,2013-03-17 04:30:00,
2013-03-17 00:40:00,37.0,32.0,29.88,NE,42,0.0,7.0,82,0.00,,,0.00,Wunderground v.1.12,2013-03-17 04:40:00,
2013-03-17 00:50:00,37.0,32.0,29.88,NE,42,0.0,7.0,82,0.00,,,0.00,Wunderground v.1.12,2013-03-17 04:50:00,
2013-03-17 01:00:00,36.9,32.2,29.87,NE,42,0.0,7.0,83,0.00,,,0.00,Wunderground v.1.12,2013-03-17 05:00:00,
2013-03-17 01:10:00,36.9,32.2,29.88,North,32767,0.0,1.0,83,0.00,,,0.00,Wunderground v.1.12,2013-03-17 05:10:00,
2013-03-17 01:20:00,37.7,33.6,29.88,North,360,0.0,1.0,85,0.00,,,0.00,Wunderground v.1.12,2013-03-17 05:20:00,
2013-03-17 01:30:00,37.5,33.7,29.88,North,32767,0.0,1.0,86,0.00,,,0.00,Wunderground v.1.12,2013-03-17 05:30:00,
2013-03-17 01:40:00,37.4,33.6,29.89,North,360,0.0,1.0,86,0.00,,,0.00,Wunderground v.1.12,2013-03-17 05:40:00,
2013-03-17 01:50:00,37.3,33.5,29.89,North,32767,0.0,1.0,86,0.00,,,0.00,Wunderground v.1.12,2013-03-17 05:50:00,
2013-03-17 02:00:00,37.1,33.3,29.90,North,360,0.0,1.0,86,0.00,,,0.00,Wunderground v.1.12,2013-03-17 06:00:00,
2013-03-17 02:10:00,36.8,33.0,29.90,North,32767,0.0,1.0,86,0.00,,,0.00,Wunderground v.1.12,2013-03-17 06:10:00,
2013-03-17 02:20:00,36.8,33.0,29.90,North,360,0.0,1.0,86,0.00,,,0.00,Wunderground v.1.12,2013-03-17 06:20:00,
2013-03-17 02:30:00,36.7,33.2,29.90,North,360,0.0,1.0,87,0.00,,,0.00,Wunderground v.1.12,2013-03-17 06:30:00,
2013-03-17 02:40:00,36.7,34.6,29.91,North,360,0.0,1.0,92,0.00,,,0.00,Wunderground v.1.12,2013-03-17 06:40:00,
2013-03-17 02:50:00,36.6,33.1,29.91,North,32767,0.0,1.0,87,0.00,,,0.00,Wunderground v.1.12,2013-03-17 06:50:00,
2013-03-17 03:00:00,36.4,32.9,29.91,North,32767,0.0,1.0,87,0.00,,,0.00,Wunderground v.1.12,2013-03-17 07:00:00,
2013-03-17 03:10:00,36.4,32.9,29.91,North,360,0.0,1.0,87,0.00,,,0.00,Wunderground v.1.12,2013-03-17 07:10:00,
2013-03-17 03:20:00,36.3,32.8,29.91,North,32767,0.0,1.0,87,0.00,,,0.00,Wunderground v.1.12,2013-03-17 07:20:00,
2013-03-17 03:30:00,36.1,32.9,29.92,North,32767,0.0,1.0,88,0.00,,,0.00,Wunderground v.1.12,2013-03-17 07:30:00,
2013-03-17 03:40:00,36.0,32.8,29.93,North,32767,0.0,1.0,88,0.00,,,0.00,Wunderground v.1.12,2013-03-17 07:40:00,
2013-03-17 03:50:00,36.0,32.8,29.93,North,32767,0.0,1.0,88,0.00,,,0.00,Wunderground v.1.12,2013-03-17 07:50:00,
2013-03-17 04:00:00,35.9,33.0,29.93,North,32767,0.0,1.0,89,0.00,,,0.00,Wunderground v.1.12,2013-03-17 08:00:00,
2013-03-17 04:10:00,35.9,33.0,29.93,North,32767,0.0,1.0,89,0.00,,,0.00,Wunderground v.1.12,2013-03-17 08:10:00,
2013-03-17 04:20:00,35.9,33.0,29.93,North,32767,0.0,1.0,89,0.00,,,0.00,Wunderground v.1.12,2013-03-17 08:20:00,
2013-03-17 04:30:00,36.0,33.1,29.93,North,32767,0.0,1.0,89,0.00,,,0.00,Wunderground v.1.12,2013-03-17 08:30:00,
2013-03-17 04:40:00,36.0,33.1,29.94,North,32767,0.0,1.0,89,0.00,,,0.00,Wunderground v.1.12,2013-03-17 08:40:00,
2013-03-17 04:50:00,36.0,33.1,29.94,North,360,0.0,1.0,89,0.00,,,0.00,Wunderground v.1.12,2013-03-17 08:50:00,
2013-03-17 05:00:00,35.9,33.0,29.95,North,360,0.0,1.0,89,0.00,,,0.00,Wunderground v.1.12,2013-03-17 09:00:00,
2013-03-17 05:10:00,35.8,32.6,29.96,North,32767,0.0,1.0,88,0.00,,,0.00,Wunderground v.1.12,2013-03-17 09:10:00,
2013-03-17 05:20:00,35.8,32.3,29.96,North,360,0.0,1.0,87,0.00,,,0.00,Wunderground v.1.12,2013-03-17 09:20:00,
2013-03-17 05:30:00,35.8,32.0,29.96,North,32767,0.0,1.0,86,0.00,,,0.00,Wunderground v.1.12,2013-03-17 09:30:00,
2013-03-17 05:40:00,35.9,31.8,29.97,North,32767,0.0,1.0,85,0.00,,,0.00,Wunderground v.1.12,2013-03-17 09:40:00,
2013-03-17 05:50:00,36.0,31.9,29.97,North,32767,0.0,1.0,85,0.00,,,0.00,Wunderground v.1.12,2013-03-17 09:50:00,
2013-03-17 06:00:00,36.1,32.0,29.97,North,32767,0.0,1.0,85,0.00,,,0.00,Wunderground v.1.12,2013-03-17 10:00:00,
2013-03-17 06:10:00,36.2,32.1,29.97,North,360,0.0,0.0,85,0.00,,,0.00,Wunderground v.1.12,2013-03-17 10:10:00,
2013-03-17 06:20:00,36.1,31.7,29.97,North,360,0.0,0.0,84,0.00,,,0.00,Wunderground v.1.12,2013-03-17 10:20:00,
2013-03-17 06:30:00,36.1,31.7,29.98,North,32767,0.0,0.0,84,0.00,,,0.00,Wunderground v.1.12,2013-03-17 10:30:00,
2013-03-17 06:40:00,36.3,31.6,29.99,North,32767,0.0,0.0,83,0.00,,,0.00,Wunderground v.1.12,2013-03-17 10:40:00,
2013-03-17 06:50:00,36.5,31.2,29.99,North,32767,0.0,0.0,81,0.00,,,0.00,Wunderground v.1.12,2013-03-17 10:50:00,
2013-03-17 07:00:00,36.6,31.3,29.99,North,32767,0.0,0.0,81,0.00,,,0.00,Wunderground v.1.12,2013-03-17 11:00:00,
2013-03-17 07:10:00,37.0,31.4,30.00,North,32767,0.0,0.0,80,0.00,,,0.00,Wunderground v.1.12,2013-03-17 11:10:00,
2013-03-17 07:20:00,37.1,31.2,30.00,North,360,0.0,0.0,79,0.00,,,0.00,Wunderground v.1.12,2013-03-17 11:20:00,
2013-03-17 07:30:00,37.3,31.4,30.00,North,360,0.0,0.0,79,0.00,,,0.00,Wunderground v.1.12,2013-03-17 11:30:00,
2013-03-17 07:40:00,37.6,31.4,30.02,North,32767,0.0,0.0,78,0.00,,,0.00,Wunderground v.1.12,2013-03-17 11:40:00,
2013-03-17 07:50:00,37.8,31.2,30.02,North,32767,0.0,0.0,77,0.00,,,0.00,Wunderground v.1.12,2013-03-17 11:50:00,
2013-03-17 08:00:00,38.1,31.2,30.03,North,32767,0.0,0.0,76,0.00,,,0.00,Wunderground v.1.12,2013-03-17 12:00:00,
2013-03-17 08:10:00,38.3,31.4,30.03,North,32767,0.0,0.0,76,0.00,,,0.00,Wunderground v.1.12,2013-03-17 12:10:00,
2013-03-17 08:20:00,38.7,31.8,30.03,North,32767,0.0,0.0,76,0.00,,,0.00,Wunderground v.1.12,2013-03-17 12:20:00,
2013-03-17 08:30:00,39.1,31.8,30.03,North,360,0.0,0.0,75,0.00,,,0.00,Wunderground v.1.12,2013-03-17 12:30:00,
2013-03-17 08:40:00,39.3,31.7,30.05,North,32767,0.0,0.0,74,0.00,,,0.00,Wunderground v.1.12,2013-03-17 12:40:00,
2013-03-17 08:50:00,39.6,32.0,30.05,North,360,0.0,0.0,74,0.00,,,0.00,Wunderground v.1.12,2013-03-17 12:50:00,
2013-03-17 09:00:00,39.9,31.6,30.06,North,360,0.0,0.0,72,0.00,,,0.00,Wunderground v.1.12,2013-03-17 13:00:00,
2013-03-17 09:10:00,40.1,31.4,30.07,North,32767,0.0,0.0,71,0.00,,,0.00,Wunderground v.1.12,2013-03-17 13:10:00,
2013-03-17 09:20:00,40.5,31.8,30.07,North,32767,0.0,0.0,71,0.00,,,0.00,Wunderground v.1.12,2013-03-17 13:20:00,
2013-03-17 09:30:00,40.9,31.9,30.07,North,32767,0.0,0.0,70,0.00,,,0.00,Wunderground v.1.12,2013-03-17 13:30:00,
2013-03-17 09:40:00,40.9,31.5,30.07,North,32767,0.0,0.0,69,0.00,,,0.00,Wunderground v.1.12,2013-03-17 13:40:00,
2013-03-17 09:50:00,40.8,31.4,30.07,North,32767,0.0,0.0,69,0.00,,,0.00,Wunderground v.1.12,2013-03-17 13:50:00,
2013-03-17 10:00:00,41.1,31.7,30.08,North,360,0.0,0.0,69,0.00,,,0.00,Wunderground v.1.12,2013-03-17 14:00:00,
2013-03-17 10:10:00,41.0,31.6,30.08,North,32767,0.0,0.0,69,0.00,,,0.00,Wunderground v.1.12,2013-03-17 14:10:00,
2013-03-17 10:20:00,41.1,31.7,30.08,North,32767,0.0,0.0,69,0.00,,,0.00,Wunderground v.1.12,2013-03-17 14:20:00,
2013-03-17 10:30:00,41.3,31.5,30.08,North,360,0.0,0.0,68,0.00,,,0.00,Wunderground v.1.12,2013-03-17 14:30:00,
2013-03-17 10:40:00,41.6,32.2,30.11,North,360,0.0,0.0,69,0.00,,,0.00,Wunderground v.1.12,2013-03-17 14:40:00,
2013-03-17 10:50:00,41.5,31.7,30.11,North,32767,0.0,0.0,68,0.00,,,0.00,Wunderground v.1.12,2013-03-17 14:50:00,
2013-03-17 11:00:00,41.5,31.7,30.11,North,32767,0.0,0.0,68,0.00,,,0.00,Wunderground v.1.12,2013-03-17 15:00:00,
2013-03-17 11:10:00,42.9,28.7,30.11,ENE,59,0.0,0.0,57,0.00,,,0.00,Wunderground v.1.12,2013-03-17 15:10:00,
2013-03-17 11:20:00,42.8,29.0,30.11,ENE,76,0.0,0.0,58,0.00,,,0.00,Wunderground v.1.12,2013-03-17 15:20:00,
2013-03-17 11:30:00,42.5,28.8,30.11,ENE,73,0.0,0.0,58,0.00,,,0.00,Wunderground v.1.12,2013-03-17 15:30:00,
2013-03-17 11:40:00,42.2,28.5,30.11,NNE,21,0.0,0.0,58,0.00,,,0.00,Wunderground v.1.12,2013-03-17 15:40:00,
2013-03-17 11:49:00,41.9,28.6,30.11,NE,43,0.0,4.0,59,0.00,,,0.00,Wunderground v.1.12,2013-03-17 15:49:00,
2013-03-17 12:00:00,41.9,28.6,30.11,South,169,0.0,0.0,59,0.00,,,0.00,Wunderground v.1.12,2013-03-17 16:00:00,
2013-03-17 12:10:00,41.9,28.6,30.11,NE,48,0.0,0.0,59,0.00,,,0.00,Wunderground v.1.12,2013-03-17 16:10:00,
2013-03-17 12:20:00,42.5,30.0,30.11,NE,44,0.0,0.0,61,0.00,,,0.00,Wunderground v.1.12,2013-03-17 16:20:00,
2013-03-17 12:30:00,42.3,30.2,30.11,ENE,65,0.0,0.0,62,0.00,,,0.00,Wunderground v.1.12,2013-03-17 16:30:00,
2013-03-17 12:40:00,41.8,30.1,30.14,NNE,21,0.0,0.0,63,0.00,,,0.00,Wunderground v.1.12,2013-03-17 16:40:00,
2013-03-17 12:50:00,41.2,30.3,30.14,ENE,58,1.0,1.0,65,0.00,,,0.00,Wunderground v.1.12,2013-03-17 16:50:00,
2013-03-17 13:00:00,41.1,30.2,30.14,ENE,57,0.0,0.0,65,0.00,,,0.00,Wunderground v.1.12,2013-03-17 17:00:00,
2013-03-17 13:10:00,41.1,29.1,30.14,East,84,0.0,0.0,62,0.00,,,0.00,Wunderground v.1.12,2013-03-17 17:10:00,
2013-03-17 13:20:00,41.2,30.3,30.14,NNE,22,1.0,1.0,65,0.00,,,0.00,Wunderground v.1.12,2013-03-17 17:20:00,
2013-03-17 13:30:00,40.9,30.4,30.12,NNE,14,1.0,1.0,66,0.00,,,0.00,Wunderground v.1.12,2013-03-17 17:30:00,
2013-03-17 13:40:00,40.6,30.9,30.12,NNE,25,1.0,4.0,68,0.00,,,0.00,Wunderground v.1.12,2013-03-17 17:40:00,
2013-03-17 13:50:00,40.2,30.1,30.12,NNE,19,2.0,2.0,67,0.00,,,0.00,Wunderground v.1.12,2013-03-17 17:50:00,
2013-03-17 14:00:00,39.9,29.8,30.12,East,82,1.0,1.0,67,0.00,,,0.00,Wunderground v.1.12,2013-03-17 18:00:00,
2013-03-17 14:10:00,40.1,30.0,30.11,ENE,72,0.0,1.0,67,0.00,,,0.00,Wunderground v.1.12,2013-03-17 18:10:00,
2013-03-17 14:20:00,40.2,29.7,30.11,NE,40,1.0,1.0,66,0.00,,,0.00,Wunderground v.1.12,2013-03-17 18:20:00,
2013-03-17 14:30:00,40.1,30.4,30.11,North,11,1.0,1.0,68,0.00,,,0.00,Wunderground v.1.12,2013-03-17 18:30:00,
2013-03-17 14:40:00,40.1,30.4,30.11,NNE,31,1.0,1.0,68,0.00,,,0.00,Wunderground v.1.12,2013-03-17 18:40:00,
2013-03-17 14:50:00,40.1,30.4,30.11,ENE,59,1.0,1.0,68,0.00,,,0.00,Wunderground v.1.12,2013-03-17 18:50:00,
2013-03-17 15:00:00,40.3,30.2,30.11,NE,50,1.0,1.0,67,0.00,,,0.00,Wunderground v.1.12,2013-03-17 19:00:00,
2013-03-17 15:10:00,40.5,30.0,30.12,NE,38,0.0,3.0,66,0.00,,,0.00,Wunderground v.1.12,2013-03-17 19:10:00,
2013-03-17 15:20:00,40.2,29.7,30.12,ENE,58,1.0,1.0,66,0.00,,,0.00,Wunderground v.1.12,2013-03-17 19:20:00,
2013-03-17 15:30:00,40.2,29.7,30.12,NNE,19,1.0,5.0,66,0.00,,,0.00,Wunderground v.1.12,2013-03-17 19:30:00,
2013-03-17 15:40:00,39.9,30.2,30.13,NE,34,1.0,1.0,68,0.00,,,0.00,Wunderground v.1.12,2013-03-17 19:40:00,
2013-03-17 15:50:00,39.9,30.2,30.13,NE,50,0.0,0.0,68,0.00,,,0.00,Wunderground v.1.12,2013-03-17 19:50:00,
2013-03-17 16:00:00,39.9,29.8,30.14,NE,47,0.0,0.0,67,0.00,,,0.00,Wunderground v.1.12,2013-03-17 20:00:00,
2013-03-17 16:10:00,39.6,29.9,30.14,NE,36,1.0,4.0,68,0.00,,,0.00,Wunderground v.1.12,2013-03-17 20:10:00,
2013-03-17 16:20:00,39.6,29.9,30.14,NE,44,1.0,1.0,68,0.00,,,0.00,Wunderground v.1.12,2013-03-17 20:20:00,
2013-03-17 16:30:00,39.6,29.5,30.14,North,5,0.0,4.0,67,0.00,,,0.00,Wunderground v.1.12,2013-03-17 20:30:00,
2013-03-17 16:40:00,39.6,29.2,30.14,NE,43,0.0,4.0,66,0.00,,,0.00,Wunderground v.1.12,2013-03-17 20:40:00,
2013-03-17 16:50:00,39.6,29.5,30.14,NE,38,1.0,1.0,67,0.00,,,0.00,Wunderground v.1.12,2013-03-17 20:50:00,
2013-03-17 17:00:00,39.3,28.9,30.14,ENE,59,0.0,4.0,66,0.00,,,0.00,Wunderground v.1.12,2013-03-17 21:00:00,
2013-03-17 17:10:00,39.5,29.1,30.14,NE,34,0.0,4.0,66,0.00,,,0.00,Wunderground v.1.12,2013-03-17 21:10:00,
2013-03-17 17:20:00,39.5,29.1,30.14,ENE,59,1.0,4.0,66,0.00,,,0.00,Wunderground v.1.12,2013-03-17 21:20:00,
2013-03-17 17:30:00,39.3,28.9,30.14,East,90,1.0,1.0,66,0.00,,,0.00,Wunderground v.1.12,2013-03-17 21:30:00,
2013-03-17 17:40:00,39.2,28.8,30.15,NE,49,1.0,1.0,66,0.00,,,0.00,Wunderground v.1.12,2013-03-17 21:40:00,
2013-03-17 17:50:00,39.2,28.8,30.15,NNE,32,1.0,1.0,66,0.00,,,0.00,Wunderground v.1.12,2013-03-17 21:50:00,
2013-03-17 18:00:00,39.1,28.7,30.15,NE,45,0.0,4.0,66,0.00,,,0.00,Wunderground v.1.12,2013-03-17 22:00:00,
2013-03-17 18:10:00,38.9,28.5,30.16,NE,46,0.0,4.0,66,0.00,,,0.00,Wunderground v.1.12,2013-03-17 22:10:00,
2013-03-17 18:20:00,38.9,28.5,30.16,NE,46,0.0,4.0,66,0.00,,,0.00,Wunderground v.1.12,2013-03-17 22:20:00,
2013-03-17 18:29:00,38.9,28.5,30.16,ENE,69,0.0,4.0,66,0.00,,,0.00,Wunderground v.1.12,2013-03-17 22:29:00,
2013-03-17 18:40:00,38.8,28.4,30.17,SE,132,0.0,4.0,66,0.00,,,0.00,Wunderground v.1.12,2013-03-17 22:40:00,
2013-03-17 18:50:00,38.6,28.6,30.17,NE,36,0.0,4.0,67,0.00,,,0.00,Wunderground v.1.12,2013-03-17 22:50:00,
2013-03-17 19:00:00,38.6,28.6,30.17,NE,35,0.0,4.0,67,0.00,,,0.00,Wunderground v.1.12,2013-03-17 23:00:00,
2013-03-17 19:10:00,38.6,28.6,30.18,NE,35,0.0,4.0,67,0.00,,,0.00,Wunderground v.1.12,2013-03-17 23:10:00,
2013-03-17 19:20:00,38.6,30.7,30.18,North,32767,0.0,4.0,73,0.00,,,0.00,Wunderground v.1.12,2013-03-17 23:20:00,
2013-03-17 19:30:00,38.6,30.7,30.18,North,32767,0.0,4.0,73,0.00,,,0.00,Wunderground v.1.12,2013-03-17 23:30:00,
2013-03-17 19:40:00,38.7,30.8,30.19,North,32767,0.0,4.0,73,0.00,,,0.00,Wunderground v.1.12,2013-03-17 23:40:00,
2013-03-17 19:50:00,38.7,30.8,30.19,North,32767,0.0,4.0,73,0.00,,,0.00,Wunderground v.1.12,2013-03-17 23:50:00,
2013-03-17 19:59:00,38.7,30.8,30.18,North,32767,0.0,4.0,73,0.00,,,0.00,Wunderground v.1.12,2013-03-17 23:59:00,
2013-03-17 20:10:00,38.7,30.8,30.19,North,32767,0.0,0.0,73,0.00,,,0.00,Wunderground v.1.12,2013-03-18 00:10:00,
2013-03-17 20:20:00,38.7,31.1,30.19,North,32767,0.0,0.0,74,0.00,,,0.00,Wunderground v.1.12,2013-03-18 00:20:00,
2013-03-17 20:30:00,38.8,31.2,30.20,North,32767,0.0,0.0,74,0.00,,,0.00,Wunderground v.1.12,2013-03-18 00:30:00,
2013-03-17 20:40:00,38.7,31.1,30.20,North,360,0.0,0.0,74,0.00,,,0.00,Wunderground v.1.12,2013-03-18 00:40:00,
2013-03-17 20:50:00,38.6,31.0,30.20,North,32767,0.0,0.0,74,0.00,,,0.00,Wunderground v.1.12,2013-03-18 00:50:00,
2013-03-17 21:00:00,38.6,31.0,30.20,North,32767,0.0,0.0,74,0.00,,,0.00,Wunderground v.1.12,2013-03-18 01:00:00,
2013-03-17 21:10:00,38.6,31.0,30.21,North,32767,0.0,0.0,74,0.00,,,0.00,Wunderground v.1.12,2013-03-18 01:10:00,
2013-03-17 21:20:00,38.6,31.0,30.21,North,32767,0.0,0.0,74,0.00,,,0.00,Wunderground v.1.12,2013-03-18 01:20:00,
2013-03-17 21:30:00,38.6,31.4,30.21,North,360,0.0,0.0,75,0.00,,,0.00,Wunderground v.1.12,2013-03-18 01:30:00,
2013-03-17 21:40:00,38.6,31.7,30.22,North,32767,0.0,0.0,76,0.00,,,0.00,Wunderground v.1.12,2013-03-18 01:40:00,
2013-03-17 21:50:00,38.6,31.4,30.22,North,32767,0.0,0.0,75,0.00,,,0.00,Wunderground v.1.12,2013-03-18 01:50:00,
2013-03-17 22:00:00,39.0,31.1,30.21,North,32767,0.0,0.0,73,0.00,,,0.00,Wunderground v.1.12,2013-03-18 02:00:00,
2013-03-17 22:10:00,39.2,31.3,30.21,North,32767,0.0,0.0,73,0.00,,,0.00,Wunderground v.1.12,2013-03-18 02:10:00,
2013-03-17 22:20:00,39.4,30.1,30.21,North,32767,0.0,0.0,69,0.00,,,0.00,Wunderground v.1.12,2013-03-18 02:20:00,
2013-03-17 22:30:00,39.5,29.4,30.22,North,360,0.0,0.0,67,0.00,,,0.00,Wunderground v.1.12,2013-03-18 02:30:00,
2013-03-17 22:40:00,39.5,28.7,30.23,North,360,0.0,0.0,65,0.00,,,0.00,Wunderground v.1.12,2013-03-18 02:40:00,
2013-03-17 22:50:00,39.5,28.7,30.23,North,32767,0.0,0.0,65,0.00,,,0.00,Wunderground v.1.12,2013-03-18 02:50:00,
2013-03-17 23:00:00,39.5,28.3,30.23,North,32767,0.0,0.0,64,0.00,,,0.00,Wunderground v.1.12,2013-03-18 03:00:00,
2013-03-17 23:10:00,39.4,28.2,30.23,North,32767,0.0,0.0,64,0.00,,,0.00,Wunderground v.1.12,2013-03-18 03:10:00,
2013-03-17 23:20:00,38.9,24.9,30.23,NE,44,0.0,5.0,57,0.00,,,0.00,Wunderground v.1.12,2013-03-18 03:20:00,
2013-03-17 23:30:00,38.9,24.9,30.23,NE,45,1.0,1.0,57,0.00,,,0.00,Wunderground v.1.12,2013-03-18 03:30:00,
2013-03-17 23:40:00,38.9,24.5,30.23,ENE,69,1.0,1.0,56,0.00,,,0.00,Wunderground v.1.12,2013-03-18 03:40:00,
2013-03-17 23:50:00,38.8,23.6,30.23,NE,53,0.0,0.0,54,0.00,,,0.00,Wunderground v.1.12,2013-03-18 03:50:00,